Flight Track Log - Related Links

Times and Time Zones

All times are in EDT time to prevent confusion due to time zone crossing. See the AAL994 flight status page for this flight to view local times or setup timezone preferences in your user account.

Time Position Orientation Groundspeed Altitude Reporting Facility
EDT Latitude Longitude Course Direction KTS MPH feet Rate Location/Type
Tue 09:34:00 AM 13.7694 -85.5160 20° North  Level Estimated
Tue 09:35:00 AM 13.8720 -85.4773 20° North  Level FlightAware
Tue 09:36:00 AM 13.9736 -85.4362 21° North  Level Estimated
Tue 09:37:00 AM 14.0754 -85.3954 21° North  Level FlightAware
Tue 09:38:00 AM 14.1772 -85.3545 21° North  Level FlightAware
Tue 09:39:00 AM 14.2790 -85.3137 21° North  Level FlightAware
Tue 09:40:00 AM 14.3808 -85.2728 21° North  Level FlightAware
Tue 09:41:00 AM 14.4826 -85.2318 21° North  Level FlightAware
Tue 09:42:00 AM 14.5843 -85.1908 21° North  Level FlightAware
Tue 09:43:00 AM 14.6861 -85.1498 21° North  Level FlightAware
Tue 09:44:00 AM 14.7879 -85.1088 21° North  Level FlightAware
Tue 09:45:00 AM 14.8896 -85.0677 21° North  Level FlightAware
Tue 09:46:00 AM 14.9912 -85.0262 21° North  Level Estimated
Tue 09:47:00 AM 15.0931 -84.9854 21° North  Level FlightAware
Tue 09:48:00 AM 15.1949 -84.9445 21° North  Level FlightAware
Tue 09:49:00 AM 15.2968 -84.9037 21° North  Level FlightAware
Tue 09:50:00 AM 15.3986 -84.8627 21° North  Level FlightAware
Tue 09:51:00 AM 15.5005 -84.8218 21° North  Level FlightAware
Tue 09:52:00 AM 15.6023 -84.7808 21° North  Level FlightAware
Tue 09:53:00 AM 15.7041 -84.7398 21° North  Level FlightAware
Tue 09:54:00 AM 15.8059 -84.6987 21° North  Level FlightAware
Tue 09:55:00 AM 15.9078 -84.6576 21° North  Level FlightAware
Tue 09:56:00 AM 16.0096 -84.6164 21° North  Level FlightAware
Tue 09:57:00 AM 16.1113 -84.5752 21° North  Level FlightAware
Tue 09:58:00 AM 16.2131 -84.5340 21° North  Level FlightAware
Tue 09:59:00 AM 16.3149 -84.4927 21° North  Level FlightAware
Tue 10:00:00 AM 16.4167 -84.4513 21° North  Level FlightAware
Tue 10:01:00 AM 16.5184 -84.4100 21° North  Level FlightAware
Tue 10:02:00 AM 16.6202 -84.3685 21° North  Level FlightAware
Tue 10:03:00 AM 16.7220 -84.3271 21° North  Level FlightAware
Tue 10:04:00 AM 16.8237 -84.2856 21° North  Level FlightAware
Tue 10:05:00 AM 16.9254 -84.2440 21° North  Level FlightAware
Tue 10:06:00 AM 17.0271 -84.2024 21° North  Level FlightAware
Tue 10:07:00 AM 17.1289 -84.1608 21° North  Level FlightAware
Tue 10:08:00 AM 17.2306 -84.1191 21° North  Level FlightAware
Tue 10:09:00 AM 17.3323 -84.0774 21° North  Level FlightAware
Tue 10:10:00 AM 17.4339 -84.0356 21° North  Level FlightAware
Tue 10:11:00 AM 17.5356 -83.9938 21° North  Level FlightAware
Tue 10:12:00 AM 17.6373 -83.9519 21° North  Level FlightAware
Tue 10:13:00 AM 17.7390 -83.9100 21° North  Level FlightAware
Tue 10:14:00 AM 17.8406 -83.8680 21° North  Level FlightAware
Tue 10:15:00 AM 17.9422 -83.8260 21° North  Level FlightAware
Tue 10:16:00 AM 18.0439 -83.7839 21° North  Level FlightAware
Tue 10:17:00 AM 18.1455 -83.7418 21° North  Level FlightAware
Tue 10:18:00 AM 18.2471 -83.6997 22° Northeast  Level FlightAware
Tue 10:19:00 AM 18.3487 -83.6575 22° Northeast  Level FlightAware
Tue 10:20:00 AM 18.4499 -83.6141 21° North  Level Estimated
Tue 10:21:00 AM 18.5517 -83.5723 21° North  Level FlightAware
Tue 10:22:00 AM 18.6535 -83.5305 21° North  Level FlightAware
Tue 10:23:00 AM 18.7552 -83.4886 21° North  Level FlightAware
Tue 10:24:00 AM 18.8570 -83.4467 21° North  Level FlightAware
Tue 10:25:00 AM 18.9587 -83.4047 21° North  Level FlightAware
Tue 10:26:00 AM 19.0605 -83.3627 21° North  Level FlightAware
Tue 10:27:00 AM 19.1622 -83.3206 21° North  Level FlightAware
Tue 10:28:00 AM 19.2639 -83.2785 21° North  Level FlightAware
Tue 10:29:00 AM 19.3657 -83.2363 21° North  Level FlightAware
Tue 10:30:00 AM 19.4674 -83.1941 21° North  Level FlightAware
Tue 10:31:00 AM 19.5690 -83.1518 21° North  Level FlightAware
Tue 10:32:00 AM 19.6707 -83.1094 21° North  Level FlightAware
Tue 10:33:00 AM 19.7717 -83.0651 22° Northeast  Level Estimated
Tue 10:34:00 AM 19.8731 -83.0221 22° Northeast  Level FlightAware
Tue 10:35:00 AM 19.9746 -82.9791 22° Northeast  Level FlightAware
Tue 10:36:00 AM 20.0760 -82.9360 22° Northeast  Level FlightAware
Tue 10:37:00 AM 20.1775 -82.8929 22° Northeast  Level FlightAware
Tue 10:38:00 AM 20.2783 -82.8482 22° Northeast  Level Estimated
Tue 10:39:00 AM 20.3795 -82.8043 22° Northeast  Level FlightAware
Tue 10:40:00 AM 20.4807 -82.7604 22° Northeast  Level FlightAware
Tue 10:41:00 AM 20.5819 -82.7165 22° Northeast  Level FlightAware
Tue 10:42:00 AM 20.6830 -82.6725 22° Northeast  Level FlightAware
Tue 10:43:00 AM 20.7842 -82.6284 22° Northeast  Level FlightAware
Tue 10:44:00 AM 20.8853 -82.5843 22° Northeast  Level FlightAware
Tue 10:45:00 AM 20.9864 -82.5401 22° Northeast  Level FlightAware
Tue 10:46:00 AM 21.0875 -82.4958 22° Northeast  Level FlightAware
Tue 10:47:00 AM 21.1887 -82.4515 22° Northeast  Level FlightAware
Tue 10:48:00 AM 21.2897 -82.4072 22° Northeast  Level FlightAware
Tue 10:49:00 AM 21.3908 -82.3627 22° Northeast  Level FlightAware
Tue 10:50:00 AM 21.4919 -82.3183 22° Northeast  Level FlightAware
Tue 10:51:00 AM 21.5925 -82.2725 22° Northeast  Level Estimated
Tue 10:52:00 AM 21.6938 -82.2287 22° Northeast  Level FlightAware
Tue 10:53:00 AM 21.7952 -82.1849 22° Northeast  Level FlightAware
Tue 10:54:00 AM 21.8965 -82.1410 22° Northeast  Level FlightAware
Tue 10:55:00 AM 21.9979 -82.0970 22° Northeast  Level FlightAware
Tue 10:56:00 AM 22.0992 -82.0530 22° Northeast  Level FlightAware
Tue 10:56:41 AM 22.8097 -81.5881 22° Northeast 421 484 38,000  Level Miami Center
Tue 10:57:00 AM 22.2005 -82.0089 22° Northeast  Level FlightAware
Tue 10:57:43 AM 22.9222 -81.5519 16° North 421 484 38,000  Level Miami Center
Tue 10:58:00 AM 22.3018 -81.9648 22° Northeast  Level FlightAware
Tue 10:58:45 AM 23.0328 -81.5203 15° North 419 482 38,000  Level Miami Center
Tue 10:59:00 AM 22.4031 -81.9206 22° Northeast  Level FlightAware
Tue 10:59:47 AM 23.1678 -81.4783 16° North 419 482 38,000  Level Miami Center
Tue 11:00:00 AM 22.5043 -81.8763 22° Northeast  Level FlightAware
Tue 11:00:50 AM 23.2786 -81.4419 17° North 419 482 38,000  Level Miami Center
Tue 11:01:00 AM 22.6056 -81.8320 22° Northeast  Level FlightAware
Tue 11:01:52 AM 23.3911 -81.4083 15° North 419 482 38,000  Level Miami Center
Tue 11:02:54 AM 23.5033 -81.3725 16° North 419 482 38,000 -290 Level Miami Center
Tue 11:03:56 AM 23.6156 -81.3367 16° North 419 482 37,400 -823 Descending Miami Center
Tue 11:04:58 AM 23.7506 -81.2944 16° North 419 482 36,300 -672 Descending Miami Center
Tue 11:06:01 AM 23.8656 -81.2586 16° North 423 487 36,000 -144 Descending Miami Center
Tue 11:07:03 AM 23.9811 -81.2219 16° North 428 493 36,000  Level Miami Center
Tue 11:08:05 AM 24.0992 -81.1975 11° North 430 495 36,000  Level Miami Center
Tue 11:09:07 AM 24.2161 -81.1731 11° North 430 495 36,000 -912 Level Miami Center
Tue 11:10:10 AM 24.3547 -81.1453 10° North 426 490 34,100 -2,352 Descending Miami Center
Tue 11:11:12 AM 24.4706 -81.1228 10° North 425 489 31,100 -2,661 Descending Miami Center
Tue 11:12:14 AM 24.5883 -81.0994 10° North 428 493 28,600 -2,371 Descending Miami Center
Tue 11:13:16 AM 24.7058 -81.0758 10° North 429 494 26,200 -2,274 Descending Miami Center
Tue 11:14:18 AM 24.8231 -81.0525 10° North 429 494 23,900 -2,400 Descending Miami Center
Tue 11:15:21 AM 24.9561 -81.0250 11° North 407 468 21,200 -2,304 Descending Miami Center
Tue 11:16:23 AM 25.0644 -81.0050 North 399 459 19,100 -1,984 Descending Miami Center
Tue 11:17:25 AM 25.1667 -80.9847 10° North 382 440 17,100 -2,032 Descending Miami Center
Tue 11:18:27 AM 25.2675 -80.9631 11° North 374 430 14,900 -2,081 Descending Miami Center
Tue 11:19:29 AM 25.3653 -80.9436 10° North 361 415 12,800 -2,177 Descending Miami Center
Tue 11:20:31 AM 25.4783 -80.9225 10° North 353 406 10,400 -1,902 Descending Miami Center
Tue 11:20:51 AM 25.5139 -80.9150 11° North 343 395 10,200 -774 Descending Miami Center
Tue 11:21:33 AM 25.5639 -80.8875 26° Northeast 303 349 9,600 -982 Descending Miami Center
Tue 11:21:46 AM 25.5736 -80.8692 60° Northeast 287 330 9,300 -1,355 Descending Miami Center
Tue 11:22:35 AM 25.6033 -80.8106 61° Northeast 291 335 8,200 -1,377 Descending Miami Center
Tue 11:22:47 AM 25.6122 -80.7939 59° Northeast 284 327 7,900 -1,452 Descending Miami Center
Tue 11:23:37 AM 25.6458 -80.7328 59° Northeast 276 318 6,700 -1,377 Descending Miami Center
Tue 11:23:48 AM 25.6506 -80.7206 67° East 266 306 6,500 -1,167 Descending Miami Center
Tue 11:24:49 AM 25.6864 -80.6542 59° Northeast 252 290 5,300 -983 Descending Miami Center
Tue 11:25:44 AM 25.7194 -80.5967 57° Northeast 240 276 4,600 -626 Descending Miami Center
Tue 11:26:44 AM 25.7500 -80.5372 60° Northeast 225 259 4,100 -836 Descending Miami Center
Tue 11:27:46 AM 25.7817 -80.4725 61° Northeast 224 258 2,900 -1,163 Descending Miami Center
Tue 11:28:53 AM 25.7825 -80.4028 89° East 188 216 1,600 -1,016 Descending Miami Center
Tue 11:29:50 AM 25.7847 -80.3553 87° East 163 188 800 -776 Descending Miami Center
Tue 11:30:49 AM 25.7858 -80.3150 88° East 144 166 100 -712 Descending Miami Center

Login

Don't have an account? Register now (free) for customized features, flight alerts, and more!